Sussex, Virginia
Current Conditions -  °F | °C
As of 4:54 AM on Friday 28 Nov 2014 (Local Time) from KAKQ Reporting Station
Clear Clear  
Wind Chill: 31°   Ceiling: Unl
Heat Index: 31°   Visibility: 10mi
Dew Point: 25°   Wind: 0mph
Humidity: 79%   Direction: NA
Pressure: 30.26"   Gusts: NA
Location:  36.92°N, 77.28°W
Report Text: KAKQ 280954Z AUTO 00000KT 10SM CLR M01/M04 A3026 RMK AO2 SLP249 T10061039 TSNO
Loading
Personal Weather Stations






























Interactive Weather Map New forecast layout! Learn more

10-Day Weather Forecast

Advertisements
Track Severe Weather on mobile